sensor_id;sensor_type;location;lat;lon;timestamp;temperature;humidity
67942;SHT31;54731;42.600;23.476;2022-12-07T00:03:38;4.30;86.04
67942;SHT31;54731;42.600;23.476;2022-12-07T00:06:06;4.32;86.10
67942;SHT31;54731;42.600;23.476;2022-12-07T00:08:32;4.33;86.10
67942;SHT31;54731;42.600;23.476;2022-12-07T00:11:10;4.39;86.00
67942;SHT31;54731;42.600;23.476;2022-12-07T00:13:36;4.34;85.97
67942;SHT31;54731;42.600;23.476;2022-12-07T00:16:04;4.29;86.15
67942;SHT31;54731;42.600;23.476;2022-12-07T00:18:29;4.32;86.10
67942;SHT31;54731;42.600;23.476;2022-12-07T00:21:03;4.33;86.03
67942;SHT31;54731;42.600;23.476;2022-12-07T00:23:29;4.33;85.98
67942;SHT31;54731;42.600;23.476;2022-12-07T00:25:54;4.32;85.95
67942;SHT31;54731;42.600;23.476;2022-12-07T00:28:19;4.30;85.88
67942;SHT31;54731;42.600;23.476;2022-12-07T00:30:45;4.24;85.96
67942;SHT31;54731;42.600;23.476;2022-12-07T00:33:10;4.26;86.01
67942;SHT31;54731;42.600;23.476;2022-12-07T00:35:35;4.26;85.97
67942;SHT31;54731;42.600;23.476;2022-12-07T00:38:00;4.29;85.92
67942;SHT31;54731;42.600;23.476;2022-12-07T00:40:26;4.29;85.80
67942;SHT31;54731;42.600;23.476;2022-12-07T00:42:51;4.32;85.67
67942;SHT31;54731;42.600;23.476;2022-12-07T00:45:16;4.29;85.60
67942;SHT31;54731;42.600;23.476;2022-12-07T00:47:42;4.26;85.71
67942;SHT31;54731;42.600;23.476;2022-12-07T00:50:07;4.26;85.86
67942;SHT31;54731;42.600;23.476;2022-12-07T00:52:33;4.26;85.89
67942;SHT31;54731;42.600;23.476;2022-12-07T00:54:58;4.14;86.28
67942;SHT31;54731;42.600;23.476;2022-12-07T00:57:23;4.21;86.11
67942;SHT31;54731;42.600;23.476;2022-12-07T00:59:48;4.20;86.25
67942;SHT31;54731;42.600;23.476;2022-12-07T01:02:14;4.19;86.34
67942;SHT31;54731;42.600;23.476;2022-12-07T01:04:39;4.16;86.51
67942;SHT31;54731;42.600;23.476;2022-12-07T01:07:04;4.17;86.51
67942;SHT31;54731;42.600;23.476;2022-12-07T01:09:30;4.20;86.48
67942;SHT31;54731;42.600;23.476;2022-12-07T01:11:55;4.21;86.38
67942;SHT31;54731;42.600;23.476;2022-12-07T01:14:20;4.27;86.21
67942;SHT31;54731;42.600;23.476;2022-12-07T01:16:46;4.21;86.30
67942;SHT31;54731;42.600;23.476;2022-12-07T01:19:11;4.23;86.36
67942;SHT31;54731;42.600;23.476;2022-12-07T01:21:38;4.19;86.41
67942;SHT31;54731;42.600;23.476;2022-12-07T01:24:05;4.21;86.52
67942;SHT31;54731;42.600;23.476;2022-12-07T01:26:30;4.19;86.52
67942;SHT31;54731;42.600;23.476;2022-12-07T01:28:56;4.20;86.43
67942;SHT31;54731;42.600;23.476;2022-12-07T01:31:23;4.19;86.38
67942;SHT31;54731;42.600;23.476;2022-12-07T01:33:51;4.23;86.31
67942;SHT31;54731;42.600;23.476;2022-12-07T01:36:21;4.21;86.19
67942;SHT31;54731;42.600;23.476;2022-12-07T01:38:49;4.20;86.19
67942;SHT31;54731;42.600;23.476;2022-12-07T01:41:15;4.23;86.14
67942;SHT31;54731;42.600;23.476;2022-12-07T01:49:16;4.20;86.18
67942;SHT31;54731;42.600;23.476;2022-12-07T01:51:43;4.20;86.13
67942;SHT31;54731;42.600;23.476;2022-12-07T01:54:11;4.19;86.11
67942;SHT31;54731;42.600;23.476;2022-12-07T01:56:38;4.20;86.05
67942;SHT31;54731;42.600;23.476;2022-12-07T01:59:04;4.19;86.10
67942;SHT31;54731;42.600;23.476;2022-12-07T02:01:30;4.17;86.12
67942;SHT31;54731;42.600;23.476;2022-12-07T02:03:55;4.16;86.20
67942;SHT31;54731;42.600;23.476;2022-12-07T02:06:23;4.14;86.24
67942;SHT31;54731;42.600;23.476;2022-12-07T02:08:49;4.16;86.18
67942;SHT31;54731;42.600;23.476;2022-12-07T02:11:15;4.20;86.07
67942;SHT31;54731;42.600;23.476;2022-12-07T02:13:42;4.19;86.03
67942;SHT31;54731;42.600;23.476;2022-12-07T02:27:45;4.17;86.08
67942;SHT31;54731;42.600;23.476;2022-12-07T02:30:17;4.17;86.01
67942;SHT31;54731;42.600;23.476;2022-12-07T02:33:08;4.16;86.08
67942;SHT31;54731;42.600;23.476;2022-12-07T02:35:44;4.13;86.16
67942;SHT31;54731;42.600;23.476;2022-12-07T02:38:26;4.13;86.03
67942;SHT31;54731;42.600;23.476;2022-12-07T02:41:00;4.17;86.03
67942;SHT31;54731;42.600;23.476;2022-12-07T02:44:07;4.16;86.04
67942;SHT31;54731;42.600;23.476;2022-12-07T02:46:38;4.19;86.02
67942;SHT31;54731;42.600;23.476;2022-12-07T02:49:05;4.17;86.14
67942;SHT31;54731;42.600;23.476;2022-12-07T02:51:32;4.16;86.16
67942;SHT31;54731;42.600;23.476;2022-12-07T02:53:58;4.13;86.18
67942;SHT31;54731;42.600;23.476;2022-12-07T03:10:46;4.09;86.35
67942;SHT31;54731;42.600;23.476;2022-12-07T03:13:50;4.10;86.47
67942;SHT31;54731;42.600;23.476;2022-12-07T03:16:30;4.09;86.42
67942;SHT31;54731;42.600;23.476;2022-12-07T03:19:07;3.99;86.60
67942;SHT31;54731;42.600;23.476;2022-12-07T03:21:38;3.99;86.63
67942;SHT31;54731;42.600;23.476;2022-12-07T03:24:09;4.02;86.51
67942;SHT31;54731;42.600;23.476;2022-12-07T03:26:38;4.00;86.33
67942;SHT31;54731;42.600;23.476;2022-12-07T03:29:12;4.00;86.19
67942;SHT31;54731;42.600;23.476;2022-12-07T03:31:42;3.99;86.09
67942;SHT31;54731;42.600;23.476;2022-12-07T03:34:19;3.86;86.11
67942;SHT31;54731;42.600;23.476;2022-12-07T03:37:01;3.83;86.08
67942;SHT31;54731;42.600;23.476;2022-12-07T03:42:05;3.85;86.30
67942;SHT31;54731;42.600;23.476;2022-12-07T03:44:32;3.86;86.59
67942;SHT31;54731;42.600;23.476;2022-12-07T03:47:05;3.86;86.74
67942;SHT31;54731;42.600;23.476;2022-12-07T03:49:41;3.85;86.77
67942;SHT31;54731;42.600;23.476;2022-12-07T03:52:11;3.85;86.74
67942;SHT31;54731;42.600;23.476;2022-12-07T03:54:45;3.82;86.80
67942;SHT31;54731;42.600;23.476;2022-12-07T03:57:13;3.79;86.81
67942;SHT31;54731;42.600;23.476;2022-12-07T03:59:39;3.79;86.92
67942;SHT31;54731;42.600;23.476;2022-12-07T04:02:06;3.76;86.97
67942;SHT31;54731;42.600;23.476;2022-12-07T04:04:32;3.76;86.97
67942;SHT31;54731;42.600;23.476;2022-12-07T04:06:58;3.74;86.93
67942;SHT31;54731;42.600;23.476;2022-12-07T04:09:23;3.74;86.95
67942;SHT31;54731;42.600;23.476;2022-12-07T04:11:49;3.74;86.93
67942;SHT31;54731;42.600;23.476;2022-12-07T04:14:14;3.68;86.76
67942;SHT31;54731;42.600;23.476;2022-12-07T04:16:39;3.64;86.32
67942;SHT31;54731;42.600;23.476;2022-12-07T04:19:04;3.64;86.45
67942;SHT31;54731;42.600;23.476;2022-12-07T04:21:30;3.62;86.47
67942;SHT31;54731;42.600;23.476;2022-12-07T04:23:55;3.61;86.27
67942;SHT31;54731;42.600;23.476;2022-12-07T04:26:20;3.61;86.25
67942;SHT31;54731;42.600;23.476;2022-12-07T04:28:46;3.59;86.25
67942;SHT31;54731;42.600;23.476;2022-12-07T04:31:11;3.59;86.05
67942;SHT31;54731;42.600;23.476;2022-12-07T04:33:36;3.55;86.14
67942;SHT31;54731;42.600;23.476;2022-12-07T04:36:02;3.51;86.30
67942;SHT31;54731;42.600;23.476;2022-12-07T04:38:27;3.50;86.38
67942;SHT31;54731;42.600;23.476;2022-12-07T04:40:53;3.45;86.57
67942;SHT31;54731;42.600;23.476;2022-12-07T04:43:18;3.46;86.60
67942;SHT31;54731;42.600;23.476;2022-12-07T04:45:49;3.54;86.59
67942;SHT31;54731;42.600;23.476;2022-12-07T04:48:15;3.51;86.62
67942;SHT31;54731;42.600;23.476;2022-12-07T04:50:40;3.54;86.71
67942;SHT31;54731;42.600;23.476;2022-12-07T04:53:05;3.51;86.76
67942;SHT31;54731;42.600;23.476;2022-12-07T04:55:31;3.58;86.83
67942;SHT31;54731;42.600;23.476;2022-12-07T04:57:56;3.59;86.83
67942;SHT31;54731;42.600;23.476;2022-12-07T05:00:21;3.51;87.01
67942;SHT31;54731;42.600;23.476;2022-12-07T05:02:47;3.51;87.01
67942;SHT31;54731;42.600;23.476;2022-12-07T05:05:12;3.52;87.14
67942;SHT31;54731;42.600;23.476;2022-12-07T05:07:37;3.55;87.10
67942;SHT31;54731;42.600;23.476;2022-12-07T05:10:03;3.56;87.14
67942;SHT31;54731;42.600;23.476;2022-12-07T05:12:29;3.51;87.24
67942;SHT31;54731;42.600;23.476;2022-12-07T05:14:54;3.51;87.28
67942;SHT31;54731;42.600;23.476;2022-12-07T05:17:19;3.50;87.38
67942;SHT31;54731;42.600;23.476;2022-12-07T05:19:44;3.52;87.58
67942;SHT31;54731;42.600;23.476;2022-12-07T05:22:10;3.52;87.44
67942;SHT31;54731;42.600;23.476;2022-12-07T05:24:35;3.51;87.39
67942;SHT31;54731;42.600;23.476;2022-12-07T05:27:00;3.46;87.34
67942;SHT31;54731;42.600;23.476;2022-12-07T05:29:26;3.51;87.35
67942;SHT31;54731;42.600;23.476;2022-12-07T05:31:51;3.50;87.17
67942;SHT31;54731;42.600;23.476;2022-12-07T05:34:16;3.46;87.03
67942;SHT31;54731;42.600;23.476;2022-12-07T05:36:42;3.44;87.08
67942;SHT31;54731;42.600;23.476;2022-12-07T05:39:07;3.45;86.92
67942;SHT31;54731;42.600;23.476;2022-12-07T05:41:33;3.45;86.92
67942;SHT31;54731;42.600;23.476;2022-12-07T05:43:58;3.45;86.90
67942;SHT31;54731;42.600;23.476;2022-12-07T05:46:23;3.46;86.82
67942;SHT31;54731;42.600;23.476;2022-12-07T05:48:48;3.42;86.88
67942;SHT31;54731;42.600;23.476;2022-12-07T05:51:14;3.44;86.78
67942;SHT31;54731;42.600;23.476;2022-12-07T05:53:39;3.42;86.68
67942;SHT31;54731;42.600;23.476;2022-12-07T05:56:05;3.39;86.73
67942;SHT31;54731;42.600;23.476;2022-12-07T05:58:30;3.36;86.71
67942;SHT31;54731;42.600;23.476;2022-12-07T06:00:56;3.35;86.41
67942;SHT31;54731;42.600;23.476;2022-12-07T06:03:21;3.35;86.29
67942;SHT31;54731;42.600;23.476;2022-12-07T06:05:47;3.34;86.37
67942;SHT31;54731;42.600;23.476;2022-12-07T06:08:12;3.36;86.63
67942;SHT31;54731;42.600;23.476;2022-12-07T06:10:38;3.39;86.81
67942;SHT31;54731;42.600;23.476;2022-12-07T06:13:03;3.32;86.87
67942;SHT31;54731;42.600;23.476;2022-12-07T06:15:28;3.35;86.94
67942;SHT31;54731;42.600;23.476;2022-12-07T06:17:54;3.35;86.90
67942;SHT31;54731;42.600;23.476;2022-12-07T06:20:19;3.36;86.96
67942;SHT31;54731;42.600;23.476;2022-12-07T06:22:44;3.39;87.01
67942;SHT31;54731;42.600;23.476;2022-12-07T06:25:10;3.39;87.34
67942;SHT31;54731;42.600;23.476;2022-12-07T06:27:35;3.36;87.52
67942;SHT31;54731;42.600;23.476;2022-12-07T06:30:01;3.38;87.62
67942;SHT31;54731;42.600;23.476;2022-12-07T06:32:26;3.36;87.60
67942;SHT31;54731;42.600;23.476;2022-12-07T06:34:51;3.39;87.65
67942;SHT31;54731;42.600;23.476;2022-12-07T06:37:16;3.44;87.71
67942;SHT31;54731;42.600;23.476;2022-12-07T06:39:42;3.50;87.72
67942;SHT31;54731;42.600;23.476;2022-12-07T06:42:07;3.48;87.78
67942;SHT31;54731;42.600;23.476;2022-12-07T06:44:32;3.51;87.74
67942;SHT31;54731;42.600;23.476;2022-12-07T06:46:58;3.54;87.70
67942;SHT31;54731;42.600;23.476;2022-12-07T06:49:23;3.59;87.61
67942;SHT31;54731;42.600;23.476;2022-12-07T06:51:48;3.64;87.60
67942;SHT31;54731;42.600;23.476;2022-12-07T06:54:14;3.62;87.61
67942;SHT31;54731;42.600;23.476;2022-12-07T06:56:40;3.71;87.64
67942;SHT31;54731;42.600;23.476;2022-12-07T06:59:06;3.75;87.83
67942;SHT31;54731;42.600;23.476;2022-12-07T07:01:32;3.79;87.79
67942;SHT31;54731;42.600;23.476;2022-12-07T07:03:58;3.81;88.03
67942;SHT31;54731;42.600;23.476;2022-12-07T07:06:24;3.83;88.14
67942;SHT31;54731;42.600;23.476;2022-12-07T07:08:49;3.89;88.18
67942;SHT31;54731;42.600;23.476;2022-12-07T07:11:15;3.95;88.16
67942;SHT31;54731;42.600;23.476;2022-12-07T07:13:40;3.97;88.11
67942;SHT31;54731;42.600;23.476;2022-12-07T07:16:06;3.97;88.25
67942;SHT31;54731;42.600;23.476;2022-12-07T07:18:32;3.99;88.50
67942;SHT31;54731;42.600;23.476;2022-12-07T07:20:57;3.99;88.67
67942;SHT31;54731;42.600;23.476;2022-12-07T07:23:23;4.06;88.60
67942;SHT31;54731;42.600;23.476;2022-12-07T07:25:49;4.11;88.40
67942;SHT31;54731;42.600;23.476;2022-12-07T07:28:15;4.07;88.44
67942;SHT31;54731;42.600;23.476;2022-12-07T07:30:40;4.14;88.43
67942;SHT31;54731;42.600;23.476;2022-12-07T07:33:06;4.20;88.35
67942;SHT31;54731;42.600;23.476;2022-12-07T07:35:33;4.24;88.19
67942;SHT31;54731;42.600;23.476;2022-12-07T07:37:59;4.30;88.06
67942;SHT31;54731;42.600;23.476;2022-12-07T07:40:25;4.29;87.92
67942;SHT31;54731;42.600;23.476;2022-12-07T07:42:52;4.32;87.90
67942;SHT31;54731;42.600;23.476;2022-12-07T07:45:18;4.37;87.81
67942;SHT31;54731;42.600;23.476;2022-12-07T07:47:44;4.40;87.74
67942;SHT31;54731;42.600;23.476;2022-12-07T07:50:09;4.36;87.87
67942;SHT31;54731;42.600;23.476;2022-12-07T07:52:35;4.44;87.75
67942;SHT31;54731;42.600;23.476;2022-12-07T07:55:00;4.50;87.64
67942;SHT31;54731;42.600;23.476;2022-12-07T07:57:26;4.51;87.58
67942;SHT31;54731;42.600;23.476;2022-12-07T07:59:51;4.60;87.18
67942;SHT31;54731;42.600;23.476;2022-12-07T08:02:18;4.62;87.05
67942;SHT31;54731;42.600;23.476;2022-12-07T08:04:44;4.68;86.84
67942;SHT31;54731;42.600;23.476;2022-12-07T08:07:10;4.72;86.87
67942;SHT31;54731;42.600;23.476;2022-12-07T08:09:36;4.75;86.91
67942;SHT31;54731;42.600;23.476;2022-12-07T08:12:01;4.81;86.81
67942;SHT31;54731;42.600;23.476;2022-12-07T08:14:27;4.81;86.31
67942;SHT31;54731;42.600;23.476;2022-12-07T08:16:52;4.95;86.10
67942;SHT31;54731;42.600;23.476;2022-12-07T08:19:18;4.98;86.04
67942;SHT31;54731;42.600;23.476;2022-12-07T08:21:43;4.98;85.84
67942;SHT31;54731;42.600;23.476;2022-12-07T08:24:09;4.96;85.72
67942;SHT31;54731;42.600;23.476;2022-12-07T08:26:34;4.99;85.68
67942;SHT31;54731;42.600;23.476;2022-12-07T08:28:59;5.08;85.55
67942;SHT31;54731;42.600;23.476;2022-12-07T08:31:25;5.02;85.21
67942;SHT31;54731;42.600;23.476;2022-12-07T08:33:50;5.02;85.33
67942;SHT31;54731;42.600;23.476;2022-12-07T08:36:16;5.09;85.32
67942;SHT31;54731;42.600;23.476;2022-12-07T08:38:42;5.14;85.42
67942;SHT31;54731;42.600;23.476;2022-12-07T08:41:08;5.19;85.33
67942;SHT31;54731;42.600;23.476;2022-12-07T08:43:34;5.29;85.30
67942;SHT31;54731;42.600;23.476;2022-12-07T08:49:02;5.42;85.71
67942;SHT31;54731;42.600;23.476;2022-12-07T08:51:28;5.47;85.65
67942;SHT31;54731;42.600;23.476;2022-12-07T08:53:55;5.53;85.44
67942;SHT31;54731;42.600;23.476;2022-12-07T08:56:21;5.47;85.95
67942;SHT31;54731;42.600;23.476;2022-12-07T08:58:47;5.60;86.02
67942;SHT31;54731;42.600;23.476;2022-12-07T09:01:13;5.69;85.87
67942;SHT31;54731;42.600;23.476;2022-12-07T09:03:38;5.76;85.69
67942;SHT31;54731;42.600;23.476;2022-12-07T09:06:03;5.79;85.22
67942;SHT31;54731;42.600;23.476;2022-12-07T09:08:36;5.90;84.98
67942;SHT31;54731;42.600;23.476;2022-12-07T09:11:03;5.93;84.82
67942;SHT31;54731;42.600;23.476;2022-12-07T09:13:28;6.01;84.75
67942;SHT31;54731;42.600;23.476;2022-12-07T09:15:53;6.08;84.47
67942;SHT31;54731;42.600;23.476;2022-12-07T09:18:19;6.14;84.24
67942;SHT31;54731;42.600;23.476;2022-12-07T09:20:44;6.20;83.81
67942;SHT31;54731;42.600;23.476;2022-12-07T09:23:09;6.31;83.30
67942;SHT31;54731;42.600;23.476;2022-12-07T09:25:35;6.34;83.27
67942;SHT31;54731;42.600;23.476;2022-12-07T09:28:00;6.34;82.90
67942;SHT31;54731;42.600;23.476;2022-12-07T09:30:27;6.28;83.39
67942;SHT31;54731;42.600;23.476;2022-12-07T09:32:53;6.37;83.46
67942;SHT31;54731;42.600;23.476;2022-12-07T09:35:18;6.49;82.78
67942;SHT31;54731;42.600;23.476;2022-12-07T09:37:44;6.46;82.80
67942;SHT31;54731;42.600;23.476;2022-12-07T09:40:09;6.44;83.05
67942;SHT31;54731;42.600;23.476;2022-12-07T09:42:41;6.56;82.82
67942;SHT31;54731;42.600;23.476;2022-12-07T09:45:13;6.65;82.36
67942;SHT31;54731;42.600;23.476;2022-12-07T09:47:39;6.62;82.46
67942;SHT31;54731;42.600;23.476;2022-12-07T09:50:11;6.64;82.56
67942;SHT31;54731;42.600;23.476;2022-12-07T09:52:37;6.72;82.55
67942;SHT31;54731;42.600;23.476;2022-12-07T09:55:03;6.86;82.88
67942;SHT31;54731;42.600;23.476;2022-12-07T09:57:34;7.02;82.72
67942;SHT31;54731;42.600;23.476;2022-12-07T10:00:03;7.07;81.99
67942;SHT31;54731;42.600;23.476;2022-12-07T10:02:40;7.15;81.17
67942;SHT31;54731;42.600;23.476;2022-12-07T10:05:10;7.02;81.53
67942;SHT31;54731;42.600;23.476;2022-12-07T10:07:37;6.88;82.14
67942;SHT31;54731;42.600;23.476;2022-12-07T10:10:14;6.76;82.36
67942;SHT31;54731;42.600;23.476;2022-12-07T10:13:02;6.76;82.46
67942;SHT31;54731;42.600;23.476;2022-12-07T10:21:02;6.97;82.13
67942;SHT31;54731;42.600;23.476;2022-12-07T10:23:28;6.86;82.06
67942;SHT31;54731;42.600;23.476;2022-12-07T10:25:54;7.00;81.93
67942;SHT31;54731;42.600;23.476;2022-12-07T10:28:19;7.06;81.80
67942;SHT31;54731;42.600;23.476;2022-12-07T10:30:54;7.17;81.57
67942;SHT31;54731;42.600;23.476;2022-12-07T10:33:36;7.31;81.51
67942;SHT31;54731;42.600;23.476;2022-12-07T10:36:17;7.57;82.14
67942;SHT31;54731;42.600;23.476;2022-12-07T10:38:48;8.12;84.42
67942;SHT31;54731;42.600;23.476;2022-12-07T10:41:15;8.31;81.71
67942;SHT31;54731;42.600;23.476;2022-12-07T10:43:52;8.35;77.99
67942;SHT31;54731;42.600;23.476;2022-12-07T10:46:43;8.33;77.56
67942;SHT31;54731;42.600;23.476;2022-12-07T10:49:23;8.26;76.91
67942;SHT31;54731;42.600;23.476;2022-12-07T11:00:24;8.22;77.77
67942;SHT31;54731;42.600;23.476;2022-12-07T11:03:06;8.45;76.91
67942;SHT31;54731;42.600;23.476;2022-12-07T11:08:33;8.43;76.66
67942;SHT31;54731;42.600;23.476;2022-12-07T11:13:54;8.41;76.15
67942;SHT31;54731;42.600;23.476;2022-12-07T11:16:50;8.46;76.85
67942;SHT31;54731;42.600;23.476;2022-12-07T11:22:41;8.64;75.56
67942;SHT31;54731;42.600;23.476;2022-12-07T11:25:32;8.74;76.12
67942;SHT31;54731;42.600;23.476;2022-12-07T11:31:18;9.14;75.30
67942;SHT31;54731;42.600;23.476;2022-12-07T11:36:36;8.97;74.80
67942;SHT31;54731;42.600;23.476;2022-12-07T11:39:30;8.93;74.90
67942;SHT31;54731;42.600;23.476;2022-12-07T11:42:06;8.97;75.10
67942;SHT31;54731;42.600;23.476;2022-12-07T11:45:00;9.08;75.23
67942;SHT31;54731;42.600;23.476;2022-12-07T11:56:29;9.34;74.67
67942;SHT31;54731;42.600;23.476;2022-12-07T11:59:13;9.35;74.53
67942;SHT31;54731;42.600;23.476;2022-12-07T12:01:55;9.34;73.71
67942;SHT31;54731;42.600;23.476;2022-12-07T12:05:02;9.37;73.74
67942;SHT31;54731;42.600;23.476;2022-12-07T12:07:31;9.32;73.53
67942;SHT31;54731;42.600;23.476;2022-12-07T12:10:00;9.32;73.70
67942;SHT31;54731;42.600;23.476;2022-12-07T12:21:19;9.08;75.02
67942;SHT31;54731;42.600;23.476;2022-12-07T12:23:51;9.18;74.87
67942;SHT31;54731;42.600;23.476;2022-12-07T12:26:21;9.31;74.29
67942;SHT31;54731;42.600;23.476;2022-12-07T12:29:01;9.37;74.23
67942;SHT31;54731;42.600;23.476;2022-12-07T12:33:57;9.42;73.33
67942;SHT31;54731;42.600;23.476;2022-12-07T12:44:18;9.78;73.06
67942;SHT31;54731;42.600;23.476;2022-12-07T13:01:47;9.67;72.72
67942;SHT31;54731;42.600;23.476;2022-12-07T13:04:27;9.68;72.29
67942;SHT31;54731;42.600;23.476;2022-12-07T13:06:53;9.69;72.60
67942;SHT31;54731;42.600;23.476;2022-12-07T13:09:24;9.74;72.11
67942;SHT31;54731;42.600;23.476;2022-12-07T13:11:58;9.71;71.89
67942;SHT31;54731;42.600;23.476;2022-12-07T13:17:03;9.63;72.07
67942;SHT31;54731;42.600;23.476;2022-12-07T13:24:57;9.52;71.76
67942;SHT31;54731;42.600;23.476;2022-12-07T13:27:27;9.49;72.02
67942;SHT31;54731;42.600;23.476;2022-12-07T13:29:53;9.41;72.06
67942;SHT31;54731;42.600;23.476;2022-12-07T13:32:26;9.39;72.03
67942;SHT31;54731;42.600;23.476;2022-12-07T13:34:52;9.41;72.25
67942;SHT31;54731;42.600;23.476;2022-12-07T13:39:50;9.23;72.86
67942;SHT31;54731;42.600;23.476;2022-12-07T13:44:44;9.17;73.31
67942;SHT31;54731;42.600;23.476;2022-12-07T13:49:52;9.11;73.90
67942;SHT31;54731;42.600;23.476;2022-12-07T13:52:21;9.08;74.15
67942;SHT31;54731;42.600;23.476;2022-12-07T13:55:05;9.06;73.94
67942;SHT31;54731;42.600;23.476;2022-12-07T13:57:36;9.01;74.14
67942;SHT31;54731;42.600;23.476;2022-12-07T14:00:15;9.01;74.46
67942;SHT31;54731;42.600;23.476;2022-12-07T14:03:03;8.88;74.87
67942;SHT31;54731;42.600;23.476;2022-12-07T14:05:34;8.79;75.08
67942;SHT31;54731;42.600;23.476;2022-12-07T14:10:39;8.76;75.13
67942;SHT31;54731;42.600;23.476;2022-12-07T14:15:54;8.72;75.54
67942;SHT31;54731;42.600;23.476;2022-12-07T14:18:37;8.66;75.51
67942;SHT31;54731;42.600;23.476;2022-12-07T14:23:36;8.59;75.54
67942;SHT31;54731;42.600;23.476;2022-12-07T14:26:12;8.46;75.91
67942;SHT31;54731;42.600;23.476;2022-12-07T14:28:39;8.42;75.71
67942;SHT31;54731;42.600;23.476;2022-12-07T14:31:14;8.43;75.81
67942;SHT31;54731;42.600;23.476;2022-12-07T14:33:40;8.39;75.88
67942;SHT31;54731;42.600;23.476;2022-12-07T14:36:13;8.39;75.49
67942;SHT31;54731;42.600;23.476;2022-12-07T14:38:39;8.28;75.37
67942;SHT31;54731;42.600;23.476;2022-12-07T14:41:12;8.06;76.35
67942;SHT31;54731;42.600;23.476;2022-12-07T14:43:39;8.02;76.55
67942;SHT31;54731;42.600;23.476;2022-12-07T14:46:04;7.95;76.68
67942;SHT31;54731;42.600;23.476;2022-12-07T14:48:29;7.91;76.85
67942;SHT31;54731;42.600;23.476;2022-12-07T14:50:55;7.87;76.94
67942;SHT31;54731;42.600;23.476;2022-12-07T14:53:25;7.75;76.96
67942;SHT31;54731;42.600;23.476;2022-12-07T14:55:54;7.66;77.21
67942;SHT31;54731;42.600;23.476;2022-12-07T14:58:19;7.54;77.24
67942;SHT31;54731;42.600;23.476;2022-12-07T15:00:44;7.54;77.17
67942;SHT31;54731;42.600;23.476;2022-12-07T15:03:10;7.47;76.83
67942;SHT31;54731;42.600;23.476;2022-12-07T15:05:36;7.36;76.97
67942;SHT31;54731;42.600;23.476;2022-12-07T15:08:02;7.31;77.64
67942;SHT31;54731;42.600;23.476;2022-12-07T15:10:30;7.13;77.71
67942;SHT31;54731;42.600;23.476;2022-12-07T15:13:00;6.97;78.32
67942;SHT31;54731;42.600;23.476;2022-12-07T15:15:25;7.02;78.16
67942;SHT31;54731;42.600;23.476;2022-12-07T15:17:51;6.97;78.11
67942;SHT31;54731;42.600;23.476;2022-12-07T15:20:16;6.96;77.78
67942;SHT31;54731;42.600;23.476;2022-12-07T15:22:41;6.89;78.09
67942;SHT31;54731;42.600;23.476;2022-12-07T15:25:08;6.92;78.30
67942;SHT31;54731;42.600;23.476;2022-12-07T15:27:34;6.92;78.60
67942;SHT31;54731;42.600;23.476;2022-12-07T15:29:59;6.95;78.46
67942;SHT31;54731;42.600;23.476;2022-12-07T15:32:24;6.92;78.37
67942;SHT31;54731;42.600;23.476;2022-12-07T15:34:49;6.85;78.70
67942;SHT31;54731;42.600;23.476;2022-12-07T15:37:15;6.81;78.68
67942;SHT31;54731;42.600;23.476;2022-12-07T15:39:41;6.76;78.76
67942;SHT31;54731;42.600;23.476;2022-12-07T15:42:06;6.72;78.85
67942;SHT31;54731;42.600;23.476;2022-12-07T15:44:31;6.73;79.08
67942;SHT31;54731;42.600;23.476;2022-12-07T15:46:57;6.69;79.27
67942;SHT31;54731;42.600;23.476;2022-12-07T15:49:22;6.69;79.42
67942;SHT31;54731;42.600;23.476;2022-12-07T15:51:47;6.82;79.03
67942;SHT31;54731;42.600;23.476;2022-12-07T15:56:43;6.85;78.91
67942;SHT31;54731;42.600;23.476;2022-12-07T15:59:09;6.88;78.78
67942;SHT31;54731;42.600;23.476;2022-12-07T16:01:34;6.99;78.75
67942;SHT31;54731;42.600;23.476;2022-12-07T16:03:59;7.07;78.60
67942;SHT31;54731;42.600;23.476;2022-12-07T16:06:25;7.16;78.35
67942;SHT31;54731;42.600;23.476;2022-12-07T16:08:50;7.07;78.44
67942;SHT31;54731;42.600;23.476;2022-12-07T16:11:15;7.09;78.46
67942;SHT31;54731;42.600;23.476;2022-12-07T16:13:41;7.15;78.04
67942;SHT31;54731;42.600;23.476;2022-12-07T16:16:10;7.20;78.73
67942;SHT31;54731;42.600;23.476;2022-12-07T16:18:37;7.19;78.14
67942;SHT31;54731;42.600;23.476;2022-12-07T16:21:02;7.15;78.54
67942;SHT31;54731;42.600;23.476;2022-12-07T16:23:28;7.16;78.25
67942;SHT31;54731;42.600;23.476;2022-12-07T16:25:53;7.23;78.37
67942;SHT31;54731;42.600;23.476;2022-12-07T16:28:18;7.36;79.75
67942;SHT31;54731;42.600;23.476;2022-12-07T16:30:44;7.56;80.33
67942;SHT31;54731;42.600;23.476;2022-12-07T16:33:12;7.74;80.38
67942;SHT31;54731;42.600;23.476;2022-12-07T16:35:40;7.70;78.70
67942;SHT31;54731;42.600;23.476;2022-12-07T16:38:06;7.61;78.15
67942;SHT31;54731;42.600;23.476;2022-12-07T16:40:32;7.70;78.33
67942;SHT31;54731;42.600;23.476;2022-12-07T16:42:57;7.71;77.69
67942;SHT31;54731;42.600;23.476;2022-12-07T16:45:22;7.73;78.00
67942;SHT31;54731;42.600;23.476;2022-12-07T16:47:47;7.77;78.09
67942;SHT31;54731;42.600;23.476;2022-12-07T16:50:13;7.84;76.41
67942;SHT31;54731;42.600;23.476;2022-12-07T16:52:38;7.90;76.46
67942;SHT31;54731;42.600;23.476;2022-12-07T16:55:04;8.02;74.68
67942;SHT31;54731;42.600;23.476;2022-12-07T16:57:32;8.11;77.47
67942;SHT31;54731;42.600;23.476;2022-12-07T16:59:58;8.12;74.58
67942;SHT31;54731;42.600;23.476;2022-12-07T17:02:23;8.22;75.45
67942;SHT31;54731;42.600;23.476;2022-12-07T17:04:49;8.32;77.61
67942;SHT31;54731;42.600;23.476;2022-12-07T17:07:15;8.28;74.37
67942;SHT31;54731;42.600;23.476;2022-12-07T17:09:40;8.29;76.10
67942;SHT31;54731;42.600;23.476;2022-12-07T17:12:05;8.41;74.32
67942;SHT31;54731;42.600;23.476;2022-12-07T17:14:31;8.41;73.62
67942;SHT31;54731;42.600;23.476;2022-12-07T17:16:56;8.35;73.25
67942;SHT31;54731;42.600;23.476;2022-12-07T17:19:21;8.36;72.91
67942;SHT31;54731;42.600;23.476;2022-12-07T17:21:47;8.28;73.45
67942;SHT31;54731;42.600;23.476;2022-12-07T17:24:14;8.18;74.01
67942;SHT31;54731;42.600;23.476;2022-12-07T17:26:41;7.91;74.74
67942;SHT31;54731;42.600;23.476;2022-12-07T17:29:09;7.77;74.80
67942;SHT31;54731;42.600;23.476;2022-12-07T17:31:35;7.81;74.89
67942;SHT31;54731;42.600;23.476;2022-12-07T17:34:00;7.84;74.76
67942;SHT31;54731;42.600;23.476;2022-12-07T17:36:28;7.85;74.63
67942;SHT31;54731;42.600;23.476;2022-12-07T17:38:55;7.84;74.42
67942;SHT31;54731;42.600;23.476;2022-12-07T17:41:23;7.92;74.28
67942;SHT31;54731;42.600;23.476;2022-12-07T17:43:49;7.97;74.24
67942;SHT31;54731;42.600;23.476;2022-12-07T17:46:14;7.92;74.72
67942;SHT31;54731;42.600;23.476;2022-12-07T17:48:39;7.97;74.58
67942;SHT31;54731;42.600;23.476;2022-12-07T17:51:05;7.95;74.77
67942;SHT31;54731;42.600;23.476;2022-12-07T17:53:30;7.87;75.18